createdAt,value
2023-01-01T00:00:21.014Z,38.47
2023-01-01T00:04:22.202Z,37.13
2023-01-01T00:08:23.355Z,30.93
2023-01-01T00:12:24.550Z,29.80
2023-01-01T00:16:25.757Z,25.90
2023-01-01T00:20:33.180Z,24.93
2023-01-01T00:24:29.908Z,23.73
2023-01-01T00:28:33.103Z,20.30
2023-01-01T00:32:34.465Z,22.27
2023-01-01T00:36:35.679Z,23.43
2023-01-01T00:40:36.767Z,24.00
2023-01-01T00:44:37.978Z,24.27
2023-01-01T00:48:39.925Z,24.67
2023-01-01T00:52:41.185Z,28.90
2023-01-01T00:56:42.398Z,29.33
2023-01-01T01:00:44.151Z,30.40
2023-01-01T01:04:45.312Z,37.83
2023-01-01T01:08:47.103Z,41.50
2023-01-01T01:12:48.269Z,43.83
2023-01-01T01:16:49.547Z,50.90
2023-01-01T01:20:52.262Z,51.57
2023-01-01T01:24:53.382Z,50.10
2023-01-01T01:28:55.166Z,52.57
2023-01-01T01:32:56.296Z,55.30
2023-01-01T01:36:57.483Z,57.53
2023-01-01T01:40:58.713Z,56.57
2023-01-01T01:45:02.883Z,52.13
2023-01-01T01:49:23.199Z,53.37
2023-01-01T01:53:28.205Z,50.10
2023-01-01T01:57:30.608Z,45.27
2023-01-01T02:01:32.104Z,42.50
2023-01-01T02:05:34.757Z,35.17
2023-01-01T02:09:36.870Z,27.23
2023-01-01T02:13:38.239Z,24.17
2023-01-01T02:17:49.207Z,21.90
2023-01-01T02:22:03.183Z,23.53
2023-01-01T02:26:11.390Z,17.47
2023-01-01T02:30:13.475Z,19.00
2023-01-01T02:34:18.460Z,15.10
2023-01-01T02:38:23.429Z,15.67
2023-01-01T02:42:28.268Z,14.67
2023-01-01T02:46:35.087Z,10.87
2023-01-01T02:50:36.425Z,11.90
2023-01-01T02:54:59.197Z,8.67
2023-01-01T02:59:28.711Z,8.63
2023-01-01T03:03:36.742Z,8.50
2023-01-01T03:08:07.962Z,11.50
2023-01-01T03:12:19.054Z,7.37
2023-01-01T03:16:26.796Z,10.60
2023-01-01T03:20:31.805Z,6.83
2023-01-01T03:24:36.389Z,8.57
2023-01-01T03:28:52.974Z,7.93
2023-01-01T03:33:02.575Z,9.00
2023-01-01T03:37:07.366Z,7.33
2023-01-01T03:41:21.204Z,8.03
2023-01-01T03:45:34.855Z,8.90
2023-01-01T03:49:36.325Z,9.80
2023-01-01T03:53:42.928Z,10.27
2023-01-01T03:58:15.602Z,9.20
2023-01-01T04:02:20.628Z,9.70
2023-01-01T04:06:22.189Z,9.03
2023-01-01T04:10:24.802Z,7.83
2023-01-01T04:14:34.918Z,9.93
2023-01-01T04:18:36.117Z,9.43
2023-01-01T04:22:37.413Z,8.53
2023-01-01T04:26:38.611Z,10.57
2023-01-01T04:34:40.654Z,9.37
2023-01-01T04:38:41.849Z,11.00
2023-01-01T04:42:43.023Z,8.30
2023-01-01T04:46:44.301Z,7.90
2023-01-01T04:50:49.282Z,12.10
2023-01-01T04:54:50.467Z,8.40
2023-01-01T04:58:51.754Z,8.60
2023-01-01T05:02:52.952Z,9.63
2023-01-01T05:06:54.209Z,8.20
2023-01-01T05:11:10.307Z,10.83
2023-01-01T05:15:11.490Z,7.73
2023-01-01T05:19:13.397Z,9.47
2023-01-01T05:23:17.640Z,7.57
2023-01-01T05:27:18.833Z,8.10
2023-01-01T05:31:22.063Z,8.10
2023-01-01T05:35:26.513Z,7.70
2023-01-01T05:39:26.374Z,8.10
2023-01-01T05:43:27.545Z,9.10
2023-01-01T05:51:17.962Z,9.97
2023-01-01T05:55:19.125Z,7.83
2023-01-01T05:59:20.301Z,6.73
2023-01-01T06:03:22.083Z,8.73
2023-01-01T06:07:23.273Z,7.17
2023-01-01T06:11:25.440Z,6.43
2023-01-01T06:15:27.024Z,9.60
2023-01-01T06:19:28.207Z,9.73
2023-01-01T06:23:29.401Z,8.40
2023-01-01T06:27:30.602Z,8.73
2023-01-01T06:31:37.005Z,7.50
2023-01-01T06:35:35.362Z,8.87
2023-01-01T06:39:36.560Z,8.00
2023-01-01T06:43:37.960Z,8.30
2023-01-01T06:47:39.229Z,6.87
2023-01-01T06:51:42.553Z,6.73
2023-01-01T06:55:53.401Z,5.83
2023-01-01T06:59:52.789Z,6.80
2023-01-01T07:03:57.514Z,6.47
2023-01-01T07:07:58.715Z,6.43
2023-01-01T07:11:59.891Z,6.83
2023-01-01T07:16:04.326Z,9.83
2023-01-01T07:20:05.916Z,7.57
2023-01-01T07:24:10.026Z,6.80
2023-01-01T07:28:12.472Z,4.97
2023-01-01T07:32:13.760Z,9.37
2023-01-01T07:36:14.948Z,5.37
2023-01-01T07:40:16.229Z,7.73
2023-01-01T07:44:17.405Z,7.60
2023-01-01T07:48:18.609Z,7.97
2023-01-01T07:52:20.091Z,8.37
2023-01-01T07:56:21.344Z,5.83
2023-01-01T08:00:22.486Z,5.43
2023-01-01T08:04:23.690Z,6.50
2023-01-01T08:08:24.856Z,8.20
2023-01-01T08:12:26.653Z,8.87
2023-01-01T08:16:28.039Z,6.40
2023-01-01T08:20:30.647Z,8.20
2023-01-01T08:24:31.814Z,6.53
2023-01-01T08:28:32.999Z,9.20
2023-01-01T08:32:34.165Z,6.10
2023-01-01T08:36:36.851Z,6.70
2023-01-01T08:40:38.374Z,8.10
2023-01-01T08:44:39.552Z,5.60
2023-01-01T08:48:40.744Z,12.90
2023-01-01T08:52:41.914Z,7.40
2023-01-01T08:56:43.139Z,7.13
2023-01-01T09:00:44.297Z,8.53
2023-01-01T09:04:45.486Z,6.57
2023-01-01T09:08:46.852Z,5.90
2023-01-01T09:12:48.029Z,8.03
2023-01-01T09:16:49.302Z,8.50
2023-01-01T09:20:50.586Z,7.63
2023-01-01T09:24:51.799Z,8.77
2023-01-01T09:28:52.959Z,7.10
2023-01-01T09:32:54.262Z,7.50
2023-01-01T09:36:55.422Z,5.50
2023-01-01T09:41:07.003Z,5.83
2023-01-01T09:45:30.179Z,6.50
2023-01-01T09:49:41.569Z,12.60
2023-01-01T09:54:18.542Z,5.93
2023-01-01T09:58:23.523Z,12.63
2023-01-01T10:02:40.838Z,6.57
2023-01-01T10:06:45.822Z,5.00
2023-01-01T10:10:54.159Z,8.23
2023-01-01T10:15:00.981Z,8.43
2023-01-01T10:19:09.126Z,8.13
2023-01-01T10:23:29.384Z,8.73
2023-01-01T10:27:40.474Z,7.03
2023-01-01T10:31:46.350Z,10.63
2023-01-01T10:35:55.284Z,10.23
2023-01-01T10:39:56.668Z,7.30
2023-01-01T10:43:57.856Z,5.20
2023-01-01T10:48:20.112Z,9.20
2023-01-01T10:52:24.990Z,7.80
2023-01-01T10:56:29.989Z,9.43
2023-01-01T11:00:31.222Z,10.07
2023-01-01T11:04:32.416Z,5.93
2023-01-01T11:08:36.687Z,10.43
2023-01-01T11:13:04.139Z,9.93
2023-01-01T11:16:44.712Z,5.80
2023-01-01T11:20:52.069Z,7.00
2023-01-01T11:25:01.891Z,7.00
2023-01-01T11:29:06.856Z,8.30
2023-01-01T11:33:11.815Z,8.20
2023-01-01T11:37:28.423Z,10.73
2023-01-01T11:41:33.459Z,6.93
2023-01-01T11:45:41.169Z,6.80
2023-01-01T11:49:42.723Z,7.33
2023-01-01T11:53:44.240Z,6.53
2023-01-01T11:57:55.244Z,8.60
2023-01-01T12:02:00.219Z,7.30
2023-01-01T12:06:05.194Z,7.03
2023-01-01T12:10:19.644Z,6.37
2023-01-01T12:14:43.103Z,4.03
2023-01-01T12:18:51.465Z,8.93
2023-01-01T12:22:57.611Z,7.40
2023-01-01T12:27:24.821Z,8.07
2023-01-01T12:31:36.057Z,7.60
2023-01-01T12:35:50.142Z,7.30
2023-01-01T12:40:17.009Z,14.90
2023-01-01T12:44:21.301Z,11.90
2023-01-01T12:48:41.440Z,7.67
2023-01-01T12:53:01.578Z,7.63
2023-01-01T12:57:15.769Z,8.63
2023-01-01T13:01:31.724Z,10.50
2023-01-01T13:05:44.935Z,8.40
2023-01-01T13:09:47.722Z,5.90
2023-01-01T13:13:51.237Z,9.73
2023-01-01T13:17:52.696Z,7.23
2023-01-01T13:21:53.887Z,8.90
2023-01-01T13:26:16.153Z,5.53
2023-01-01T13:30:40.924Z,11.60
2023-01-01T13:34:59.792Z,7.33
2023-01-01T13:39:00.982Z,9.17
2023-01-01T13:43:08.203Z,8.47
2023-01-01T13:47:30.899Z,10.00
2023-01-01T13:52:06.854Z,9.03
2023-01-01T13:56:11.912Z,9.03
2023-01-01T14:00:20.581Z,6.70
2023-01-01T14:04:40.841Z,10.70
2023-01-01T14:08:42.194Z,7.83
2023-01-01T14:12:43.886Z,9.60
2023-01-01T14:16:45.133Z,10.97
2023-01-01T14:20:50.221Z,7.47
2023-01-01T14:24:52.449Z,8.60
2023-01-01T14:28:55.951Z,8.50
2023-01-01T14:33:00.234Z,11.23
2023-01-01T14:37:03.124Z,11.83
2023-01-01T14:41:14.157Z,8.63
2023-01-01T14:45:17.857Z,6.77
2023-01-01T14:49:31.875Z,8.57
2023-01-01T14:53:33.477Z,9.13
2023-01-01T14:57:36.667Z,8.30
2023-01-01T15:01:40.303Z,7.60
2023-01-01T15:05:43.609Z,8.53
2023-01-01T15:09:44.772Z,7.40
2023-01-01T15:13:58.598Z,7.70
2023-01-01T15:17:59.925Z,8.73
2023-01-01T15:22:03.423Z,9.33
2023-01-01T15:26:10.280Z,9.50
2023-01-01T15:30:27.694Z,10.30
2023-01-01T15:34:32.402Z,8.40
2023-01-01T15:38:36.880Z,8.60
2023-01-01T15:42:46.396Z,7.17
2023-01-01T15:46:51.611Z,8.80
2023-01-01T15:50:56.591Z,9.60
2023-01-01T15:54:58.665Z,9.20
2023-01-01T15:59:09.452Z,13.87
2023-01-01T16:03:18.898Z,8.50
2023-01-01T16:07:23.612Z,13.50
2023-01-01T16:11:24.823Z,9.97
2023-01-01T16:15:26.026Z,6.97
2023-01-01T16:19:30.033Z,8.07
2023-01-01T16:23:31.200Z,7.17
2023-01-01T16:27:32.410Z,9.37
2023-01-01T16:31:34.132Z,11.23
2023-01-01T16:35:35.307Z,17.83
2023-01-01T16:39:36.491Z,9.57
2023-01-01T16:43:37.688Z,11.33
2023-01-01T16:47:38.869Z,9.00
2023-01-01T16:51:43.746Z,8.80
2023-01-01T16:55:43.055Z,10.03
2023-01-01T16:59:44.449Z,9.00
2023-01-01T17:03:46.269Z,6.20
2023-01-01T17:07:47.644Z,7.23
2023-01-01T17:11:48.835Z,8.73
2023-01-01T17:15:57.104Z,10.83
2023-01-01T17:19:58.495Z,12.40
2023-01-01T17:23:59.706Z,18.93
2023-01-01T17:32:08.423Z,12.17
2023-01-01T17:36:13.491Z,10.27
2023-01-01T17:40:14.919Z,10.47
2023-01-01T17:44:16.150Z,13.50
2023-01-01T17:48:17.310Z,9.63
2023-01-01T17:52:18.566Z,8.60
2023-01-01T17:56:21.466Z,7.40
2023-01-01T18:00:22.667Z,9.77
2023-01-01T18:04:23.933Z,11.03
2023-01-01T18:08:25.135Z,9.17
2023-01-01T18:12:26.324Z,8.73
2023-01-01T18:16:28.979Z,12.07
2023-01-01T18:20:30.112Z,11.23
2023-01-01T18:24:31.422Z,9.13
2023-01-01T18:28:33.025Z,8.33
2023-01-01T18:32:34.253Z,11.50
2023-01-01T18:36:35.503Z,7.67
2023-01-01T18:40:40.085Z,8.20
2023-01-01T18:44:41.227Z,10.00
2023-01-01T18:48:42.549Z,9.77
2023-01-01T18:52:44.597Z,12.87
2023-01-01T18:56:46.684Z,7.00
2023-01-01T19:00:49.097Z,8.57
2023-01-01T19:04:50.414Z,16.83
2023-01-01T19:08:55.381Z,10.40
2023-01-01T19:12:57.277Z,9.37
2023-01-01T19:17:01.951Z,8.70
2023-01-01T19:21:16.828Z,8.80
2023-01-01T19:25:38.698Z,8.10
2023-01-01T19:29:42.963Z,9.83
2023-01-01T19:33:46.156Z,7.57
2023-01-01T19:37:47.171Z,11.27
2023-01-01T19:41:48.318Z,22.17
2023-01-01T19:45:49.529Z,16.40
2023-01-01T19:49:55.375Z,15.63
2023-01-01T19:53:59.079Z,8.70
2023-01-01T19:58:08.772Z,9.80
2023-01-01T20:02:44.896Z,11.47
2023-01-01T20:06:43.680Z,11.47
2023-01-01T20:10:50.036Z,10.13
2023-01-01T20:14:53.189Z,8.93
2023-01-01T20:18:54.349Z,6.80
2023-01-01T20:22:58.002Z,9.10
2023-01-01T20:27:01.875Z,7.57
2023-01-01T20:31:12.700Z,9.67
2023-01-01T20:35:14.264Z,9.17
2023-01-01T20:39:15.841Z,9.47
2023-01-01T20:43:19.976Z,10.77
2023-01-01T20:47:21.568Z,12.50
2023-01-01T20:51:23.511Z,11.93
2023-01-01T20:55:24.827Z,26.33
2023-01-01T20:59:41.726Z,13.33
2023-01-01T21:03:29.781Z,12.50
2023-01-01T21:07:31.269Z,7.87
2023-01-01T21:11:34.207Z,7.87
2023-01-01T21:15:35.440Z,9.97
2023-01-01T21:19:40.196Z,9.17
2023-01-01T21:23:41.743Z,11.70
2023-01-01T21:27:43.314Z,7.00
2023-01-01T21:31:46.335Z,9.53
2023-01-01T21:35:47.553Z,10.90
2023-01-01T21:49:54.732Z,9.53
2023-01-01T21:54:24.085Z,12.23
2023-01-01T21:59:02.189Z,9.27
2023-01-01T22:03:17.991Z,11.20
2023-01-01T22:07:57.203Z,8.60
2023-01-01T22:12:01.369Z,11.10
2023-01-01T22:20:24.769Z,6.90
2023-01-01T22:24:38.327Z,7.20
2023-01-01T22:28:45.922Z,9.73
2023-01-01T22:32:53.727Z,8.70
2023-01-01T22:36:59.757Z,11.40
2023-01-01T22:41:03.797Z,7.73
2023-01-01T22:45:09.408Z,6.73
2023-01-01T22:49:35.915Z,5.67
2023-01-01T22:53:41.739Z,9.43
2023-01-01T22:57:43.421Z,5.80
2023-01-01T23:01:44.714Z,9.20
2023-01-01T23:05:45.948Z,6.87
2023-01-01T23:09:47.192Z,6.40
2023-01-01T23:14:08.793Z,5.17
2023-01-01T23:18:10.971Z,6.50
2023-01-01T23:22:13.599Z,9.00
2023-01-01T23:26:14.755Z,7.93
2023-01-01T23:30:16.104Z,6.43
2023-01-01T23:34:17.588Z,8.03
